Terminal Aerodrome Forecast
Issued by NWS

Home | Current Version | Previous Version | Text Only | Print | Product List | Glossary On
Versions: 1 2 3 4 5 6 7 8 9 10 11 12 13 14 15 16 17
000
FTUS46 KSEW 291100
TAFBLI
TAF
KBLI 291120Z 2912/3012 16013G20KT P6SM -RA SCT040 BKN060 OVC090
      TEMPO 2912/2916 -RA BKN040 OVC060
     FM291800 16012G18KT P6SM SCT045 BKN070 OVC100
     FM300000 19006KT P6SM OVC050
      TEMPO 3002/3006 -RA=

USA.gov is the U.S. government's official web portal to all federal, state and local government web resources and services.